ENRS/RET METAR and TAF weather

Enter ICAO airport designator
Station Type Date Time Source
ENRS METAR 2020/01/22 11:50 UTC NOAA

ENRS 221150Z 29012KT 9999 VCSH FEW025 BKN040 02/M00 Q1017


Station Type Date Time Source
ENRS Decoded METAR 2020/01/22 11:50 UTC NOAA

Rost Flyplass, Norway (ENRS) 67-31N 012-06E
Jan 22, 2020 - 06:50 AM EST / 2020.01.22 1150 UTC
Wind: from the WNW (290 degrees) at 14 MPH (12 KT):0
Visibility: greater than 7 mile(s):0
Sky conditions: mostly cloudy
Weather: showers in the vicinity
Temperature: 35 F (2 C)
Windchill: 26 F (-3 C):1
Dew Point: 32 F (0 C)
Relative Humidity: 86%
Pressure (altimeter): 30.03 in. Hg (1017 hPa)
ob: ENRS 221150Z 29012KT 9999 VCSH FEW025 BKN040 02/M00 Q1017
cycle: 12

Station Type Date Time Source
ENRS TAF UTC NOAA

Error!

Example: see airport list